createdAt,value
2019-04-06T00:01:10.466Z,44.03
2019-04-06T00:03:39.496Z,44.87
2019-04-06T00:06:08.108Z,50.47
2019-04-06T00:08:36.677Z,45.53
2019-04-06T00:11:05.531Z,44.53
2019-04-06T00:13:34.092Z,47.70
2019-04-06T00:16:02.679Z,49.80
2019-04-06T00:18:31.268Z,48.53
2019-04-06T00:20:59.853Z,50.93
2019-04-06T00:23:28.435Z,48.33
2019-04-06T00:25:57.005Z,48.57
2019-04-06T00:28:25.572Z,49.83
2019-04-06T00:31:01.731Z,45.37
2019-04-06T00:33:31.858Z,51.97
2019-04-06T00:36:00.440Z,46.97
2019-04-06T00:38:29.021Z,49.17
2019-04-06T00:40:57.598Z,42.80
2019-04-06T00:43:26.156Z,50.00
2019-04-06T00:45:54.736Z,50.57
2019-04-06T00:48:23.312Z,47.90
2019-04-06T00:50:51.884Z,49.27
2019-04-06T00:53:20.461Z,46.70
2019-04-06T00:55:55.405Z,47.53
2019-04-06T00:58:19.264Z,44.03
2019-04-06T01:00:47.850Z,48.60
2019-04-06T01:03:16.624Z,47.33
2019-04-06T01:05:45.191Z,49.73
2019-04-06T01:08:13.785Z,50.37
2019-04-06T01:10:42.355Z,44.13
2019-04-06T01:13:10.928Z,46.10
2019-04-06T01:15:39.512Z,48.83
2019-04-06T01:18:08.164Z,43.53
2019-04-06T01:20:36.736Z,45.90
2019-04-06T01:23:05.337Z,46.10
2019-04-06T01:25:35.030Z,46.93
2019-04-06T01:28:03.678Z,48.83
2019-04-06T01:30:32.335Z,51.37
2019-04-06T01:33:00.909Z,49.70
2019-04-06T01:35:29.475Z,55.50
2019-04-06T01:37:58.059Z,49.40
2019-04-06T01:40:26.623Z,52.77
2019-04-06T01:42:55.198Z,50.10
2019-04-06T01:45:23.761Z,53.97
2019-04-06T01:47:53.165Z,52.23
2019-04-06T01:50:21.787Z,54.50
2019-04-06T01:52:50.373Z,52.90
2019-04-06T01:55:18.954Z,54.23
2019-04-06T01:57:47.548Z,54.90
2019-04-06T02:00:16.564Z,55.33
2019-04-06T02:02:53.031Z,53.43
2019-04-06T02:05:21.683Z,53.03
2019-04-06T02:07:50.660Z,55.03
2019-04-06T02:10:19.580Z,59.93
2019-04-06T02:12:48.552Z,59.00
2019-04-06T02:15:17.559Z,53.07
2019-04-06T02:17:46.510Z,56.97
2019-04-06T02:20:15.851Z,59.43
2019-04-06T02:22:44.617Z,54.57
2019-04-06T02:25:14.872Z,57.90
2019-04-06T02:27:43.770Z,52.77
2019-04-06T02:30:19.998Z,54.50
2019-04-06T02:32:53.087Z,54.00
2019-04-06T02:35:26.190Z,53.87
2019-04-06T02:37:59.366Z,55.57
2019-04-06T02:40:29.555Z,52.63
2019-04-06T02:42:59.838Z,53.97
2019-04-06T02:45:28.427Z,52.33
2019-04-06T02:47:57.200Z,53.83
2019-04-06T02:50:25.870Z,59.47
2019-04-06T02:52:54.352Z,57.77
2019-04-06T02:55:22.913Z,58.10
2019-04-06T02:57:51.420Z,55.27
2019-04-06T03:00:20.114Z,51.63
2019-04-06T03:02:48.745Z,58.83
2019-04-06T03:05:17.459Z,57.03
2019-04-06T03:07:46.035Z,66.20
2019-04-06T03:10:14.669Z,61.40
2019-04-06T03:12:43.166Z,60.13
2019-04-06T03:15:11.857Z,60.77
2019-04-06T03:17:40.465Z,58.43
2019-04-06T03:20:09.334Z,60.80
2019-04-06T03:22:37.904Z,66.13
2019-04-06T03:25:06.899Z,67.97
2019-04-06T03:27:35.480Z,58.47
2019-04-06T03:30:06.941Z,58.67
2019-04-06T03:32:35.793Z,54.70
2019-04-06T03:35:05.685Z,61.07
2019-04-06T03:37:34.264Z,53.43
2019-04-06T03:40:02.837Z,64.57
2019-04-06T03:42:31.377Z,57.97
2019-04-06T03:44:59.963Z,57.13
2019-04-06T03:47:28.521Z,57.80
2019-04-06T03:49:57.104Z,58.67
2019-04-06T03:52:25.593Z,57.40
2019-04-06T03:54:54.149Z,61.53
2019-04-06T03:57:22.596Z,56.60
2019-04-06T03:59:51.120Z,59.37
2019-04-06T04:02:19.666Z,56.17
2019-04-06T04:04:48.140Z,54.67
2019-04-06T04:07:16.693Z,58.30
2019-04-06T04:09:45.941Z,58.67
2019-04-06T04:12:14.670Z,56.70
2019-04-06T04:14:43.209Z,56.70
2019-04-06T04:17:11.664Z,59.53
2019-04-06T04:19:40.115Z,56.83
2019-04-06T04:22:08.582Z,59.30
2019-04-06T04:24:37.266Z,63.57
2019-04-06T04:27:06.353Z,52.97
2019-04-06T04:29:34.971Z,61.70
2019-04-06T04:32:03.600Z,54.77
2019-04-06T04:34:32.189Z,54.07
2019-04-06T04:37:00.683Z,53.93
2019-04-06T04:39:29.234Z,61.17
2019-04-06T04:41:57.724Z,59.57
2019-04-06T04:44:26.235Z,66.37
2019-04-06T04:46:54.715Z,64.03
2019-04-06T04:49:23.187Z,62.13
2019-04-06T04:51:51.660Z,65.07
2019-04-06T04:54:20.123Z,62.33
2019-04-06T04:56:48.588Z,63.67
2019-04-06T04:59:17.120Z,64.93
2019-04-06T05:01:45.584Z,67.33
2019-04-06T05:04:14.090Z,64.23
2019-04-06T05:06:42.579Z,71.60
2019-04-06T05:09:11.031Z,66.13
2019-04-06T05:11:39.477Z,66.70
2019-04-06T05:14:44.462Z,72.20
2019-04-06T05:17:13.127Z,66.27
2019-04-06T05:19:41.671Z,72.73
2019-04-06T05:22:10.127Z,64.43
2019-04-06T05:24:38.613Z,71.07
2019-04-06T05:27:07.087Z,66.73
2019-04-06T05:29:35.616Z,67.80
2019-04-06T05:32:04.163Z,67.40
2019-04-06T05:34:32.613Z,71.03
2019-04-06T05:37:01.081Z,63.53
2019-04-06T05:39:29.550Z,64.03
2019-04-06T05:41:58.163Z,68.17
2019-04-06T05:44:27.044Z,72.13
2019-04-06T05:46:55.533Z,74.23
2019-04-06T05:49:24.080Z,72.20
2019-04-06T05:51:52.764Z,76.10
2019-04-06T05:54:21.349Z,73.60
2019-04-06T05:56:49.836Z,65.93
2019-04-06T05:59:18.343Z,72.90
2019-04-06T06:01:48.587Z,74.97
2019-04-06T06:04:17.057Z,70.93
2019-04-06T06:06:45.575Z,74.37
2019-04-06T06:09:14.036Z,68.90
2019-04-06T06:11:42.515Z,73.90
2019-04-06T06:14:10.964Z,71.10
2019-04-06T06:16:39.427Z,69.73
2019-04-06T06:19:07.956Z,75.90
2019-04-06T06:21:36.555Z,75.00
2019-04-06T06:24:05.099Z,76.03
2019-04-06T06:26:33.558Z,78.40
2019-04-06T06:29:02.022Z,79.63
2019-04-06T06:31:30.609Z,79.17
2019-04-06T06:33:59.140Z,74.73
2019-04-06T06:36:27.796Z,78.83
2019-04-06T06:38:56.451Z,80.33
2019-04-06T06:41:24.975Z,82.97
2019-04-06T06:43:53.503Z,84.53
2019-04-06T06:46:22.366Z,85.97
2019-04-06T06:48:50.948Z,91.27
2019-04-06T06:51:19.416Z,97.10
2019-04-06T06:53:47.896Z,93.93
2019-04-06T06:56:16.360Z,95.13
2019-04-06T06:58:44.840Z,92.30
2019-04-06T07:01:13.362Z,91.57
2019-04-06T07:03:41.819Z,88.17
2019-04-06T07:06:10.275Z,108.13
2019-04-06T07:08:39.674Z,108.47
2019-04-06T07:11:08.186Z,97.40
2019-04-06T07:13:36.772Z,95.53
2019-04-06T07:16:05.385Z,83.57
2019-04-06T07:18:33.912Z,87.70
2019-04-06T07:21:02.439Z,91.57
2019-04-06T07:23:30.911Z,97.23
2019-04-06T07:25:59.449Z,92.20
2019-04-06T07:28:36.817Z,89.53
2019-04-06T07:30:58.071Z,82.30
2019-04-06T07:33:26.609Z,89.10
2019-04-06T07:35:55.101Z,87.73
2019-04-06T07:38:23.552Z,82.77
2019-04-06T07:40:52.091Z,82.90
2019-04-06T07:43:20.576Z,91.60
2019-04-06T07:45:49.035Z,91.07
2019-04-06T07:48:17.685Z,86.13
2019-04-06T07:50:46.719Z,86.17
2019-04-06T07:53:15.228Z,93.67
2019-04-06T07:55:43.880Z,91.97
2019-04-06T07:58:13.153Z,87.13
2019-04-06T08:00:41.676Z,84.97
2019-04-06T08:03:10.120Z,85.00
2019-04-06T08:05:38.846Z,89.80
2019-04-06T08:08:07.342Z,85.80
2019-04-06T08:10:35.925Z,80.03
2019-04-06T08:13:04.587Z,82.73
2019-04-06T08:15:33.111Z,85.67
2019-04-06T08:18:01.573Z,78.87
2019-04-06T08:20:30.052Z,87.77
2019-04-06T08:22:58.691Z,78.03
2019-04-06T08:25:27.484Z,87.23
2019-04-06T08:27:56.210Z,85.67
2019-04-06T08:30:24.665Z,85.60
2019-04-06T08:32:53.316Z,90.37
2019-04-06T08:35:26.010Z,86.27
2019-04-06T08:37:52.049Z,84.10
2019-04-06T08:40:20.904Z,85.77
2019-04-06T08:42:49.372Z,84.00
2019-04-06T08:45:17.854Z,82.53
2019-04-06T08:47:46.345Z,83.63
2019-04-06T08:50:15.052Z,82.57
2019-04-06T08:52:55.441Z,76.67
2019-04-06T08:55:23.945Z,77.83
2019-04-06T08:57:52.605Z,75.70
2019-04-06T09:00:21.308Z,78.53
2019-04-06T09:02:49.773Z,78.10
2019-04-06T09:05:18.405Z,73.73
2019-04-06T09:07:47.288Z,69.03
2019-04-06T09:10:15.918Z,67.73
2019-04-06T09:12:44.395Z,64.20
2019-04-06T09:15:16.259Z,57.77
2019-04-06T09:17:45.155Z,64.10
2019-04-06T09:20:14.323Z,61.63
2019-04-06T09:22:42.931Z,61.53
2019-04-06T09:25:11.727Z,56.47
2019-04-06T09:27:40.200Z,57.93
2019-04-06T09:30:09.187Z,65.63
2019-04-06T09:32:37.886Z,51.73
2019-04-06T09:35:06.701Z,49.77
2019-04-06T09:37:35.491Z,53.57
2019-04-06T09:40:06.284Z,50.00
2019-04-06T09:42:54.331Z,51.03
2019-04-06T09:45:24.509Z,48.60
2019-04-06T09:47:57.257Z,45.37
2019-04-06T09:50:39.475Z,51.33
2019-04-06T09:53:15.663Z,52.30
2019-04-06T09:55:45.799Z,54.70
2019-04-06T09:58:32.168Z,52.97
2019-04-06T10:01:19.132Z,52.90
2019-04-06T10:04:05.757Z,49.57
2019-04-06T10:06:52.475Z,47.50
2019-04-06T10:09:22.587Z,48.23
2019-04-06T10:12:09.576Z,49.23
2019-04-06T10:14:42.732Z,42.93
2019-04-06T10:17:22.088Z,46.43
2019-04-06T10:20:08.759Z,42.03
2019-04-06T10:22:47.748Z,45.47
2019-04-06T10:25:20.797Z,45.23
2019-04-06T10:28:06.220Z,45.30
2019-04-06T10:30:36.456Z,45.30
2019-04-06T10:33:15.681Z,40.93
2019-04-06T10:35:48.523Z,45.43
2019-04-06T10:38:21.440Z,40.53
2019-04-06T10:40:57.319Z,36.90
2019-04-06T10:43:43.402Z,36.23
2019-04-06T10:46:16.342Z,34.77
2019-04-06T10:48:55.661Z,34.97
2019-04-06T10:51:28.709Z,27.17
2019-04-06T10:54:08.614Z,22.13
2019-04-06T10:56:54.340Z,22.50
2019-04-06T10:59:33.522Z,25.37
2019-04-06T11:02:19.919Z,24.93
2019-04-06T11:04:51.051Z,22.57
2019-04-06T11:07:30.171Z,25.53
2019-04-06T11:10:16.802Z,23.13
2019-04-06T11:12:46.918Z,22.57
2019-04-06T11:15:32.591Z,22.60
2019-04-06T11:18:02.993Z,22.07
2019-04-06T11:23:41.100Z,22.23
2019-04-06T11:26:26.590Z,21.53
2019-04-06T11:28:56.680Z,22.37
2019-04-06T11:31:45.092Z,19.27
2019-04-06T11:34:31.135Z,18.03
2019-04-06T11:37:03.932Z,20.37
2019-04-06T11:39:50.640Z,22.53
2019-04-06T11:42:20.831Z,21.90
2019-04-06T11:44:54.019Z,23.70
2019-04-06T11:47:24.314Z,23.20
2019-04-06T11:49:57.206Z,21.90
2019-04-06T11:52:42.723Z,21.80
2019-04-06T11:55:19.046Z,24.00
2019-04-06T11:58:01.129Z,25.77
2019-04-06T12:00:43.011Z,25.73
2019-04-06T12:03:13.240Z,26.57
2019-04-06T12:05:46.274Z,25.60
2019-04-06T12:08:22.342Z,25.20
2019-04-06T12:10:52.453Z,25.97
2019-04-06T12:13:38.959Z,23.53
2019-04-06T12:16:11.879Z,24.90
2019-04-06T12:18:57.149Z,22.10
2019-04-06T12:21:39.499Z,22.60
2019-04-06T12:24:21.913Z,19.87
2019-04-06T12:26:55.003Z,20.83
2019-04-06T12:29:25.141Z,20.43
2019-04-06T12:31:55.239Z,21.27
2019-04-06T12:34:41.579Z,21.43
2019-04-06T12:37:18.019Z,21.47
2019-04-06T12:39:53.394Z,20.23
2019-04-06T12:42:22.813Z,19.43
2019-04-06T12:44:52.970Z,20.23
2019-04-06T12:47:25.847Z,21.07
2019-04-06T12:49:56.137Z,20.70
2019-04-06T12:52:42.465Z,21.80
2019-04-06T12:55:21.713Z,21.17
2019-04-06T12:57:51.835Z,21.43
2019-04-06T13:00:49.444Z,21.50
2019-04-06T13:03:12.798Z,21.27
2019-04-06T13:05:59.629Z,24.43
2019-04-06T13:08:44.749Z,24.00
2019-04-06T13:11:14.966Z,22.30
2019-04-06T13:14:02.024Z,23.17
2019-04-06T13:16:37.965Z,23.33
2019-04-06T13:19:23.386Z,23.00
2019-04-06T13:21:53.648Z,23.20
2019-04-06T13:24:32.319Z,24.10
2019-04-06T13:27:05.217Z,25.07
2019-04-06T13:29:41.215Z,24.23
2019-04-06T13:32:11.323Z,28.30
2019-04-06T13:34:41.704Z,24.03
2019-04-06T13:37:27.109Z,24.47
2019-04-06T13:40:13.772Z,23.97
2019-04-06T13:42:46.592Z,25.70
2019-04-06T13:45:19.433Z,30.33
2019-04-06T13:47:52.345Z,25.50
2019-04-06T13:50:28.134Z,27.73
2019-04-06T13:53:01.688Z,31.00
2019-04-06T13:55:31.989Z,29.27
2019-04-06T13:58:02.111Z,28.47
2019-04-06T14:00:38.056Z,31.03
2019-04-06T14:03:08.227Z,30.20
2019-04-06T14:05:38.327Z,33.17
2019-04-06T14:08:20.015Z,33.53
2019-04-06T14:11:06.557Z,32.70
2019-04-06T14:13:45.466Z,31.97
2019-04-06T14:16:24.423Z,31.63
2019-04-06T14:19:03.773Z,32.00
2019-04-06T14:21:43.272Z,29.90
2019-04-06T14:24:13.511Z,33.10
2019-04-06T14:26:43.609Z,32.50
2019-04-06T14:29:30.261Z,31.50
2019-04-06T14:32:12.619Z,31.90
2019-04-06T14:34:48.490Z,30.67
2019-04-06T14:37:21.290Z,32.63
2019-04-06T14:40:07.223Z,31.73
2019-04-06T14:42:55.476Z,32.27
2019-04-06T14:45:31.480Z,31.87
2019-04-06T14:48:18.017Z,32.23
2019-04-06T14:50:50.687Z,32.77
2019-04-06T14:53:32.688Z,32.53
2019-04-06T14:56:03.010Z,32.87
2019-04-06T14:58:51.192Z,32.67
2019-04-06T15:01:21.671Z,34.50
2019-04-06T15:03:57.448Z,32.17
2019-04-06T15:06:39.377Z,37.17
2019-04-06T15:09:14.449Z,36.57
2019-04-06T15:11:53.435Z,35.43
2019-04-06T15:14:24.392Z,35.10
2019-04-06T15:17:00.027Z,35.43
2019-04-06T15:19:46.574Z,37.03
2019-04-06T15:22:28.731Z,33.97
2019-04-06T15:25:04.752Z,34.93
2019-04-06T15:27:50.107Z,32.80
2019-04-06T15:30:32.623Z,33.30
2019-04-06T15:33:05.828Z,34.17
2019-04-06T15:35:38.852Z,33.60
2019-04-06T15:38:14.794Z,33.60
2019-04-06T15:40:54.743Z,34.10
2019-04-06T15:43:37.566Z,32.90
2019-04-06T15:46:07.826Z,32.93
2019-04-06T15:48:49.826Z,33.33
2019-04-06T15:51:19.948Z,31.63
2019-04-06T15:54:07.864Z,33.87
2019-04-06T15:56:49.871Z,34.70
2019-04-06T15:59:28.888Z,33.50
2019-04-06T16:02:04.891Z,34.10
2019-04-06T16:04:53.053Z,33.77
2019-04-06T16:07:41.208Z,35.23
2019-04-06T16:10:11.552Z,35.53
2019-04-06T16:12:44.438Z,34.70
2019-04-06T16:15:17.719Z,28.57
2019-04-06T16:17:47.848Z,31.93
2019-04-06T16:20:26.964Z,32.93
2019-04-06T16:23:12.422Z,32.73
2019-04-06T16:25:51.982Z,33.50
2019-04-06T16:28:24.827Z,33.20
2019-04-06T16:30:57.609Z,34.77
2019-04-06T16:33:27.718Z,35.23
2019-04-06T16:36:14.866Z,38.23
2019-04-06T16:39:00.119Z,34.43
2019-04-06T16:41:42.184Z,35.63
2019-04-06T16:44:12.405Z,33.73
2019-04-06T16:46:45.232Z,35.23
2019-04-06T16:49:20.991Z,35.40
2019-04-06T16:52:03.391Z,35.47
2019-04-06T16:54:39.682Z,33.37
2019-04-06T16:57:12.885Z,33.07
2019-04-06T16:59:48.967Z,34.17
2019-04-06T17:02:28.168Z,34.73
2019-04-06T17:05:13.566Z,35.67
2019-04-06T17:07:52.693Z,33.77
2019-04-06T17:10:40.958Z,32.97
2019-04-06T17:13:13.630Z,33.27
2019-04-06T17:15:59.037Z,35.37
2019-04-06T17:18:29.164Z,38.33
2019-04-06T17:21:07.049Z,35.83
2019-04-06T17:23:40.248Z,33.37
2019-04-06T17:26:10.513Z,34.37
2019-04-06T17:28:57.114Z,37.87
2019-04-06T17:31:27.225Z,42.93
2019-04-06T17:34:03.751Z,43.40
2019-04-06T17:36:50.286Z,45.53
2019-04-06T17:39:20.432Z,47.20
2019-04-06T17:42:06.961Z,48.90
2019-04-06T17:44:43.132Z,49.97
2019-04-06T17:47:25.392Z,46.73
2019-04-06T17:50:01.915Z,46.53
2019-04-06T17:52:38.476Z,44.40
2019-04-06T17:55:11.467Z,48.13
2019-04-06T17:57:44.691Z,54.03
2019-04-06T18:00:24.515Z,48.40
2019-04-06T18:02:55.052Z,52.00
2019-04-06T18:05:37.416Z,48.83
2019-04-06T18:08:23.632Z,50.00
2019-04-06T18:11:12.344Z,51.77
2019-04-06T18:13:42.505Z,47.43
2019-04-06T18:16:11.464Z,54.03
2019-04-06T18:18:40.117Z,53.10
2019-04-06T18:21:08.650Z,47.40
2019-04-06T18:23:37.125Z,51.60
2019-04-06T18:26:05.686Z,55.47
2019-04-06T18:28:34.155Z,57.30
2019-04-06T18:31:10.377Z,58.03
2019-04-06T18:33:38.984Z,58.50
2019-04-06T18:36:07.532Z,61.97
2019-04-06T18:38:42.710Z,58.20
2019-04-06T18:41:10.744Z,64.33
2019-04-06T18:43:39.866Z,59.57
2019-04-06T18:46:08.953Z,61.20
2019-04-06T18:48:37.544Z,64.17
2019-04-06T18:51:06.510Z,65.30
2019-04-06T18:53:35.343Z,67.50
2019-04-06T18:56:04.100Z,66.70
2019-04-06T18:58:32.626Z,65.40
2019-04-06T19:01:01.088Z,68.87
2019-04-06T19:03:29.931Z,67.60
2019-04-06T19:05:58.997Z,66.73
2019-04-06T19:08:27.476Z,63.73
2019-04-06T19:10:56.271Z,61.57
2019-04-06T19:13:25.370Z,64.63
2019-04-06T19:15:53.977Z,62.97
2019-04-06T19:18:22.805Z,64.10
2019-04-06T19:20:51.657Z,69.83
2019-04-06T19:23:20.280Z,70.63
2019-04-06T19:25:48.846Z,65.97
2019-04-06T19:28:17.696Z,66.37
2019-04-06T19:30:46.308Z,67.13
2019-04-06T19:33:23.269Z,68.13
2019-04-06T19:35:45.009Z,72.83
2019-04-06T19:38:13.503Z,71.87
2019-04-06T19:40:42.100Z,72.13
2019-04-06T19:43:10.586Z,69.40
2019-04-06T19:45:39.122Z,77.07
2019-04-06T19:48:07.598Z,71.17
2019-04-06T19:50:36.155Z,72.63
2019-04-06T19:53:04.767Z,74.90
2019-04-06T19:55:33.518Z,71.50
2019-04-06T19:58:02.458Z,74.93
2019-04-06T20:00:31.108Z,72.53
2019-04-06T20:02:59.752Z,70.13
2019-04-06T20:05:28.592Z,71.10
2019-04-06T20:07:57.143Z,72.63
2019-04-06T20:10:25.607Z,78.53
2019-04-06T20:12:54.642Z,73.57
2019-04-06T20:15:23.443Z,75.40
2019-04-06T20:17:51.943Z,72.07
2019-04-06T20:20:20.985Z,69.13
2019-04-06T20:22:49.580Z,73.70
2019-04-06T20:25:18.050Z,69.93
2019-04-06T20:27:46.520Z,74.17
2019-04-06T20:30:15.392Z,77.43
2019-04-06T20:32:43.873Z,73.73
2019-04-06T20:35:12.475Z,72.37
2019-04-06T20:37:41.141Z,74.80
2019-04-06T20:40:10.288Z,76.30
2019-04-06T20:42:39.414Z,75.73
2019-04-06T20:45:09.208Z,73.77
2019-04-06T20:47:37.824Z,73.27
2019-04-06T20:50:08.074Z,79.90
2019-04-06T20:52:37.072Z,77.87
2019-04-06T20:55:07.945Z,77.90
2019-04-06T20:57:36.594Z,74.07
2019-04-06T21:00:08.936Z,77.70
2019-04-06T21:02:37.700Z,78.70
2019-04-06T21:05:08.256Z,78.40
2019-04-06T21:07:37.096Z,79.37
2019-04-06T21:10:08.775Z,78.57
2019-04-06T21:12:37.420Z,78.20
2019-04-06T21:15:17.630Z,78.13
2019-04-06T21:17:38.837Z,79.87
2019-04-06T21:20:08.061Z,76.53
2019-04-06T21:22:36.684Z,80.00
2019-04-06T21:25:06.990Z,76.33
2019-04-06T21:27:37.529Z,79.27
2019-04-06T21:30:10.982Z,77.07
2019-04-06T21:32:40.215Z,73.63
2019-04-06T21:35:09.048Z,78.83
2019-04-06T21:37:38.495Z,81.03
2019-04-06T21:40:07.471Z,80.30
2019-04-06T21:42:36.501Z,74.93
2019-04-06T21:45:09.378Z,86.27
2019-04-06T21:47:38.698Z,72.47
2019-04-06T21:50:10.314Z,79.20
2019-04-06T21:52:38.908Z,80.83
2019-04-06T21:55:11.136Z,79.07
2019-04-06T21:57:40.401Z,85.30
2019-04-06T22:00:11.032Z,81.27
2019-04-06T22:02:40.184Z,83.33
2019-04-06T22:05:09.387Z,82.10
2019-04-06T22:07:47.261Z,81.07
2019-04-06T22:10:08.631Z,82.43
2019-04-06T22:12:37.822Z,79.07
2019-04-06T22:15:07.482Z,79.13
2019-04-06T22:17:36.052Z,75.93
2019-04-06T22:20:05.403Z,82.43
2019-04-06T22:22:33.987Z,80.73
2019-04-06T22:25:03.027Z,78.77
2019-04-06T22:27:31.781Z,87.33
2019-04-06T22:30:00.407Z,77.33
2019-04-06T22:32:28.956Z,86.90
2019-04-06T22:34:57.914Z,79.80
2019-04-06T22:37:26.592Z,87.37
2019-04-06T22:39:55.139Z,81.00
2019-04-06T22:42:23.854Z,83.57
2019-04-06T22:44:53.186Z,78.53
2019-04-06T22:47:23.924Z,84.13
2019-04-06T22:49:52.440Z,79.03
2019-04-06T22:52:20.922Z,77.40
2019-04-06T22:54:49.486Z,84.17
2019-04-06T22:57:19.288Z,79.23
2019-04-06T22:59:48.410Z,82.80
2019-04-06T23:02:16.992Z,79.47
2019-04-06T23:04:50.671Z,82.50
2019-04-06T23:07:19.006Z,77.70
2019-04-06T23:09:47.529Z,85.80
2019-04-06T23:12:16.691Z,83.17
2019-04-06T23:14:45.421Z,83.07
2019-04-06T23:17:14.684Z,87.67
2019-04-06T23:19:43.380Z,86.33
2019-04-06T23:22:12.467Z,80.63
2019-04-06T23:24:41.039Z,80.40
2019-04-06T23:27:09.889Z,86.63
2019-04-06T23:29:39.402Z,78.40
2019-04-06T23:32:07.998Z,78.87
2019-04-06T23:34:36.708Z,82.33
2019-04-06T23:37:05.244Z,84.80
2019-04-06T23:39:34.393Z,82.70
2019-04-06T23:42:03.450Z,81.83
2019-04-06T23:44:31.971Z,84.87
2019-04-06T23:47:00.513Z,84.07
2019-04-06T23:49:29.143Z,82.33
2019-04-06T23:51:57.820Z,85.10
2019-04-06T23:54:26.409Z,87.17
2019-04-06T23:56:54.963Z,84.40
2019-04-06T23:59:23.446Z,85.23
